createdAt,value
2018-11-06T00:00:28.006Z,10.31
2018-11-06T00:03:01.700Z,10.27
2018-11-06T00:05:29.838Z,10.25
2018-11-06T00:07:58.305Z,10.25
2018-11-06T00:10:26.554Z,10.21
2018-11-06T00:12:54.640Z,10.27
2018-11-06T00:15:22.783Z,10.18
2018-11-06T00:17:51.141Z,10.28
2018-11-06T00:20:19.913Z,10.28
2018-11-06T00:22:48.115Z,10.20
2018-11-06T00:25:16.229Z,10.08
2018-11-06T00:27:44.459Z,9.97
2018-11-06T00:30:13.705Z,9.94
2018-11-06T00:32:42.373Z,9.93
2018-11-06T00:35:11.941Z,9.91
2018-11-06T00:37:41.269Z,9.99
2018-11-06T00:40:09.885Z,9.99
2018-11-06T00:42:38.545Z,9.96
2018-11-06T00:45:10.217Z,10.00
2018-11-06T00:47:38.971Z,10.06
2018-11-06T00:50:08.986Z,9.92
2018-11-06T00:52:37.947Z,9.98
2018-11-06T00:55:07.413Z,10.01
2018-11-06T00:57:36.131Z,10.10
2018-11-06T01:00:06.176Z,10.24
2018-11-06T01:02:34.262Z,10.25
2018-11-06T01:05:02.606Z,10.02
2018-11-06T01:07:30.751Z,9.99
2018-11-06T01:09:58.835Z,9.99
2018-11-06T01:12:26.930Z,9.95
2018-11-06T01:14:55.059Z,9.85
2018-11-06T01:17:23.206Z,9.79
2018-11-06T01:19:51.713Z,9.75
2018-11-06T01:22:19.879Z,9.77
2018-11-06T01:24:48.135Z,9.79
2018-11-06T01:27:16.789Z,9.77
2018-11-06T01:29:44.998Z,9.69
2018-11-06T01:32:13.096Z,9.60
2018-11-06T01:34:41.558Z,9.60
2018-11-06T01:37:09.798Z,9.55
2018-11-06T01:39:37.886Z,9.56
2018-11-06T01:42:06.628Z,9.55
2018-11-06T01:44:34.928Z,9.54
2018-11-06T01:47:03.118Z,9.47
2018-11-06T01:49:31.423Z,9.41
2018-11-06T01:51:59.578Z,9.45
2018-11-06T01:54:28.352Z,9.60
2018-11-06T01:56:56.500Z,9.76
2018-11-06T01:59:26.026Z,9.72
2018-11-06T02:01:55.168Z,9.63
2018-11-06T02:04:24.211Z,9.32
2018-11-06T02:06:52.349Z,9.22
2018-11-06T02:09:20.985Z,9.25
2018-11-06T02:11:49.090Z,9.28
2018-11-06T02:14:17.428Z,9.26
2018-11-06T02:16:46.416Z,9.10
2018-11-06T02:19:14.727Z,9.11
2018-11-06T02:21:43.248Z,9.12
2018-11-06T02:24:11.513Z,9.10
2018-11-06T02:26:40.512Z,9.13
2018-11-06T02:29:08.912Z,9.24
2018-11-06T02:31:37.345Z,9.27
2018-11-06T02:34:06.685Z,9.36
2018-11-06T02:36:34.949Z,9.47
2018-11-06T02:39:04.248Z,9.49
2018-11-06T02:41:32.775Z,9.49
2018-11-06T02:44:01.600Z,9.50
2018-11-06T02:46:29.961Z,9.51
2018-11-06T02:48:58.057Z,9.66
2018-11-06T02:51:27.115Z,9.48
2018-11-06T02:53:55.231Z,9.65
2018-11-06T02:56:23.531Z,9.66
2018-11-06T02:58:51.613Z,9.59
2018-11-06T03:01:20.875Z,9.57
2018-11-06T03:03:48.985Z,9.55
2018-11-06T03:06:17.256Z,9.63
2018-11-06T03:08:45.385Z,9.56
2018-11-06T03:11:13.501Z,9.51
2018-11-06T03:13:43.019Z,9.37
2018-11-06T03:16:11.284Z,9.41
2018-11-06T03:18:39.420Z,9.51
2018-11-06T03:21:07.518Z,9.47
2018-11-06T03:23:35.716Z,9.39
2018-11-06T03:26:04.422Z,9.34
2018-11-06T03:28:33.124Z,9.34
2018-11-06T03:31:01.612Z,9.36
2018-11-06T03:33:29.761Z,9.44
2018-11-06T03:35:58.188Z,9.37
2018-11-06T03:38:26.420Z,9.19
2018-11-06T03:40:54.736Z,9.17
2018-11-06T03:43:22.870Z,9.18
2018-11-06T03:45:50.986Z,8.99
2018-11-06T03:48:19.150Z,8.98
2018-11-06T03:50:48.042Z,8.93
2018-11-06T03:53:16.407Z,8.88
2018-11-06T03:55:44.695Z,8.89
2018-11-06T03:58:12.810Z,8.87
2018-11-06T04:00:41.176Z,8.89
2018-11-06T04:03:09.624Z,8.97
2018-11-06T04:05:37.718Z,8.97
2018-11-06T04:08:06.292Z,8.93
2018-11-06T04:10:34.848Z,8.97
2018-11-06T04:13:03.054Z,8.86
2018-11-06T04:15:31.456Z,8.89
2018-11-06T04:17:59.592Z,8.86
2018-11-06T04:20:27.966Z,8.78
2018-11-06T04:22:56.373Z,8.75
2018-11-06T04:25:24.732Z,8.68
2018-11-06T04:27:53.058Z,8.68
2018-11-06T04:30:21.909Z,8.87
2018-11-06T04:32:50.919Z,8.98
2018-11-06T04:35:20.045Z,8.97
2018-11-06T04:37:48.638Z,9.06
2018-11-06T04:40:16.800Z,9.05
2018-11-06T04:42:45.147Z,9.06
2018-11-06T04:45:13.685Z,9.06
2018-11-06T04:47:42.447Z,8.95
2018-11-06T04:50:10.980Z,9.09
2018-11-06T04:52:39.473Z,9.05
2018-11-06T04:55:09.577Z,9.05
2018-11-06T04:57:38.096Z,8.97
2018-11-06T05:00:08.882Z,8.92
2018-11-06T05:02:37.411Z,8.97
2018-11-06T05:05:06.778Z,8.94
2018-11-06T05:07:35.466Z,8.92
2018-11-06T05:10:04.094Z,8.91
2018-11-06T05:12:33.848Z,8.92
2018-11-06T05:15:02.099Z,8.87
2018-11-06T05:17:30.254Z,8.91
2018-11-06T05:19:58.458Z,8.88
2018-11-06T05:22:26.900Z,8.92
2018-11-06T05:24:55.016Z,8.86
2018-11-06T05:27:23.133Z,8.82
2018-11-06T05:29:51.288Z,8.86
2018-11-06T05:32:19.626Z,8.96
2018-11-06T05:34:47.792Z,9.10
2018-11-06T05:37:15.970Z,9.25
2018-11-06T05:40:01.125Z,9.37
2018-11-06T05:42:29.705Z,9.24
2018-11-06T05:44:57.826Z,9.17
2018-11-06T05:47:26.338Z,9.15
2018-11-06T05:49:54.468Z,9.07
2018-11-06T05:52:22.744Z,9.09
2018-11-06T05:54:51.229Z,8.94
2018-11-06T05:57:19.350Z,8.83
2018-11-06T05:59:47.648Z,8.78
2018-11-06T06:02:15.862Z,8.81
2018-11-06T06:04:44.375Z,8.92
2018-11-06T06:07:13.156Z,8.92
2018-11-06T06:09:41.248Z,9.05
2018-11-06T06:12:09.433Z,9.19
2018-11-06T06:14:37.520Z,9.23
2018-11-06T06:17:06.653Z,9.35
2018-11-06T06:19:34.787Z,9.34
2018-11-06T06:22:02.930Z,9.53
2018-11-06T06:24:31.034Z,9.53
2018-11-06T06:26:59.374Z,9.67
2018-11-06T06:29:27.823Z,9.80
2018-11-06T06:31:56.611Z,9.86
2018-11-06T06:34:24.720Z,9.94
2018-11-06T06:36:52.859Z,9.96
2018-11-06T06:39:21.901Z,10.04
2018-11-06T06:41:50.324Z,10.18
2018-11-06T06:44:18.469Z,10.19
2018-11-06T06:46:47.313Z,10.21
2018-11-06T06:49:15.408Z,10.27
2018-11-06T06:51:44.254Z,10.35
2018-11-06T06:54:12.691Z,10.53
2018-11-06T06:56:40.677Z,10.73
2018-11-06T06:59:08.827Z,10.84
2018-11-06T07:01:37.020Z,10.83
2018-11-06T07:04:05.411Z,10.92
2018-11-06T07:06:33.529Z,10.83
2018-11-06T07:09:01.834Z,10.82
2018-11-06T07:11:29.962Z,10.76
2018-11-06T07:13:58.123Z,10.79
2018-11-06T07:16:27.843Z,10.88
2018-11-06T07:18:55.989Z,10.75
2018-11-06T07:21:24.216Z,10.77
2018-11-06T07:23:52.352Z,10.91
2018-11-06T07:26:20.597Z,10.91
2018-11-06T07:28:48.873Z,10.99
2018-11-06T07:31:16.969Z,10.98
2018-11-06T07:33:45.092Z,11.06
2018-11-06T07:36:13.397Z,11.08
2018-11-06T07:38:41.557Z,11.17
2018-11-06T07:41:10.621Z,11.17
2018-11-06T07:43:38.796Z,11.38
2018-11-06T07:46:07.578Z,11.45
2018-11-06T07:48:35.719Z,11.42
2018-11-06T07:51:03.903Z,11.48
2018-11-06T07:53:32.074Z,11.68
2018-11-06T07:56:00.352Z,11.63
2018-11-06T07:58:29.370Z,11.69
2018-11-06T08:00:58.240Z,11.81
2018-11-06T08:03:26.374Z,11.92
2018-11-06T08:05:54.540Z,12.10
2018-11-06T08:08:23.435Z,12.21
2018-11-06T08:10:51.504Z,12.29
2018-11-06T08:13:19.650Z,12.40
2018-11-06T08:15:48.448Z,12.56
2018-11-06T08:18:16.631Z,12.67
2018-11-06T08:20:46.053Z,12.72
2018-11-06T08:23:14.074Z,12.87
2018-11-06T08:25:43.039Z,13.01
2018-11-06T08:28:11.186Z,13.09
2018-11-06T08:30:39.450Z,13.21
2018-11-06T08:33:07.181Z,13.32
2018-11-06T08:35:35.310Z,13.41
2018-11-06T08:38:03.457Z,13.49
2018-11-06T08:40:31.959Z,13.80
2018-11-06T08:43:00.093Z,14.10
2018-11-06T08:45:28.191Z,14.50
2018-11-06T08:47:56.352Z,15.97
2018-11-06T08:50:24.689Z,20.00
2018-11-06T08:52:52.842Z,23.22
2018-11-06T08:55:21.070Z,26.26
2018-11-06T08:57:49.184Z,28.69
2018-11-06T09:00:18.527Z,31.41
2018-11-06T09:02:47.534Z,33.09
2018-11-06T09:05:16.629Z,34.36
2018-11-06T09:07:45.486Z,33.53
2018-11-06T09:10:14.594Z,33.50
2018-11-06T09:12:42.963Z,34.09
2018-11-06T09:15:13.393Z,33.78
2018-11-06T09:17:41.585Z,33.01
2018-11-06T09:20:11.431Z,33.79
2018-11-06T09:22:39.711Z,34.85
2018-11-06T09:25:10.131Z,34.20
2018-11-06T09:27:38.751Z,35.53
2018-11-06T09:30:12.390Z,35.80
2018-11-06T09:32:40.640Z,34.74
2018-11-06T09:35:10.720Z,36.25
2018-11-06T09:37:41.000Z,36.42
2018-11-06T09:40:12.593Z,36.86
2018-11-06T09:42:40.810Z,36.90
2018-11-06T09:45:10.347Z,37.29
2018-11-06T09:47:39.208Z,34.05
2018-11-06T09:50:12.951Z,37.63
2018-11-06T09:52:42.905Z,38.61
2018-11-06T09:55:11.223Z,38.75
2018-11-06T09:57:39.495Z,36.09
2018-11-06T10:00:12.306Z,36.88
2018-11-06T10:02:40.706Z,37.07
2018-11-06T10:05:09.645Z,37.09
2018-11-06T10:07:38.120Z,37.09
2018-11-06T10:10:09.298Z,37.57
2018-11-06T10:12:37.599Z,37.92
2018-11-06T10:15:08.599Z,37.92
2018-11-06T10:17:38.018Z,38.78
2018-11-06T10:20:07.932Z,38.63
2018-11-06T10:22:37.573Z,40.01
2018-11-06T10:25:06.439Z,39.45
2018-11-06T10:27:35.694Z,40.12
2018-11-06T10:30:04.667Z,41.11
2018-11-06T10:32:33.572Z,40.79
2018-11-06T10:35:01.694Z,40.80
2018-11-06T10:37:30.243Z,40.01
2018-11-06T10:39:59.196Z,36.52
2018-11-06T10:42:28.282Z,33.73
2018-11-06T10:44:56.414Z,30.62
2018-11-06T10:47:24.592Z,30.26
2018-11-06T10:49:52.706Z,31.95
2018-11-06T10:52:20.977Z,33.53
2018-11-06T10:54:50.055Z,34.63
2018-11-06T10:57:18.831Z,37.19
2018-11-06T10:59:46.973Z,39.05
2018-11-06T11:02:20.799Z,40.20
2018-11-06T11:04:49.631Z,40.18
2018-11-06T11:07:18.318Z,41.99
2018-11-06T11:09:46.481Z,42.54
2018-11-06T11:12:14.776Z,41.90
2018-11-06T11:14:42.935Z,43.47
2018-11-06T11:17:11.551Z,43.99
2018-11-06T11:19:39.692Z,44.11
2018-11-06T11:22:08.087Z,44.36
2018-11-06T11:24:36.399Z,44.44
2018-11-06T11:27:06.073Z,43.03
2018-11-06T11:29:34.401Z,41.20
2018-11-06T11:32:02.693Z,40.13
2018-11-06T11:34:30.975Z,37.61
2018-11-06T11:36:59.446Z,39.11
2018-11-06T11:39:27.913Z,39.14
2018-11-06T11:41:56.019Z,38.64
2018-11-06T11:44:24.593Z,37.15
2018-11-06T11:46:52.925Z,36.46
2018-11-06T11:49:21.170Z,35.47
2018-11-06T11:51:49.297Z,31.91
2018-11-06T11:54:17.625Z,30.60
2018-11-06T11:56:45.761Z,28.05
2018-11-06T11:59:14.610Z,26.73
2018-11-06T12:01:42.717Z,25.45
2018-11-06T12:04:11.022Z,24.62
2018-11-06T12:06:40.702Z,22.85
2018-11-06T12:09:09.641Z,22.11
2018-11-06T12:11:38.040Z,21.84
2018-11-06T12:14:06.680Z,21.81
2018-11-06T12:16:35.701Z,21.75
2018-11-06T12:19:04.042Z,21.55
2018-11-06T12:21:32.200Z,21.23
2018-11-06T12:24:01.074Z,21.07
2018-11-06T12:26:29.217Z,20.37
2018-11-06T12:28:57.532Z,20.36
2018-11-06T12:31:25.676Z,20.01
2018-11-06T12:33:53.972Z,19.69
2018-11-06T12:36:22.196Z,19.76
2018-11-06T12:38:50.967Z,19.63
2018-11-06T12:41:19.068Z,19.72
2018-11-06T12:43:47.412Z,19.83
2018-11-06T12:46:16.082Z,19.70
2018-11-06T12:48:45.117Z,19.74
2018-11-06T12:51:13.250Z,19.66
2018-11-06T12:53:41.538Z,19.83
2018-11-06T12:56:09.681Z,19.66
2018-11-06T12:58:37.968Z,19.56
2018-11-06T13:01:06.554Z,19.18
2018-11-06T13:03:34.960Z,19.26
2018-11-06T13:06:03.164Z,19.32
2018-11-06T13:08:31.288Z,19.27
2018-11-06T13:10:59.499Z,19.23
2018-11-06T13:13:27.880Z,19.28
2018-11-06T13:15:57.220Z,19.47
2018-11-06T13:18:25.558Z,19.47
2018-11-06T13:20:53.779Z,19.40
2018-11-06T13:23:22.050Z,19.37
2018-11-06T13:25:50.525Z,19.22
2018-11-06T13:28:19.346Z,19.22
2018-11-06T13:30:47.729Z,19.52
2018-11-06T13:33:16.773Z,19.51
2018-11-06T13:35:45.069Z,19.45
2018-11-06T13:38:13.308Z,19.33
2018-11-06T13:40:41.699Z,19.37
2018-11-06T13:43:09.890Z,19.20
2018-11-06T13:45:39.228Z,19.22
2018-11-06T13:48:07.921Z,19.33
2018-11-06T13:50:36.889Z,19.29
2018-11-06T13:53:05.548Z,19.31
2018-11-06T13:55:34.003Z,19.21
2018-11-06T13:58:02.141Z,19.14
2018-11-06T14:00:31.057Z,19.09
2018-11-06T14:02:59.820Z,19.01
2018-11-06T14:05:28.180Z,19.04
2018-11-06T14:07:56.405Z,19.01
2018-11-06T14:10:24.557Z,18.89
2018-11-06T14:12:52.695Z,18.92
2018-11-06T14:15:22.476Z,18.83
2018-11-06T14:17:50.630Z,18.76
2018-11-06T14:20:18.970Z,18.71
2018-11-06T14:22:47.102Z,19.85
2018-11-06T14:25:16.463Z,22.35
2018-11-06T14:27:44.558Z,24.27
2018-11-06T14:30:15.660Z,25.59
2018-11-06T14:32:44.072Z,26.47
2018-11-06T14:35:14.007Z,26.80
2018-11-06T14:37:42.711Z,26.91
2018-11-06T14:40:12.183Z,26.83
2018-11-06T14:42:40.804Z,26.23
2018-11-06T14:45:11.609Z,25.88
2018-11-06T14:47:40.128Z,25.82
2018-11-06T14:50:09.325Z,25.26
2018-11-06T14:52:37.760Z,23.92
2018-11-06T14:55:08.748Z,22.60
2018-11-06T14:57:37.055Z,21.55
2018-11-06T15:00:11.710Z,20.79
2018-11-06T15:02:42.702Z,20.05
2018-11-06T15:05:10.882Z,19.54
2018-11-06T15:07:39.113Z,19.23
2018-11-06T15:10:08.565Z,18.88
2018-11-06T15:12:37.387Z,18.59
2018-11-06T15:15:08.771Z,18.37
2018-11-06T15:17:38.220Z,18.10
2018-11-06T15:20:09.571Z,17.90
2018-11-06T15:22:38.119Z,17.71
2018-11-06T15:25:07.390Z,17.42
2018-11-06T15:27:35.606Z,17.25
2018-11-06T15:30:04.565Z,17.26
2018-11-06T15:32:32.721Z,17.28
2018-11-06T15:35:01.057Z,17.09
2018-11-06T15:37:29.369Z,16.90
2018-11-06T15:39:58.072Z,16.73
2018-11-06T15:42:26.455Z,16.54
2018-11-06T15:44:54.999Z,16.44
2018-11-06T15:47:23.337Z,16.35
2018-11-06T15:49:51.567Z,16.30
2018-11-06T15:52:19.919Z,16.24
2018-11-06T15:54:48.998Z,16.13
2018-11-06T15:57:18.038Z,16.05
2018-11-06T15:59:46.272Z,15.92
2018-11-06T16:02:14.592Z,15.90
2018-11-06T16:04:46.296Z,15.77
2018-11-06T16:07:17.236Z,15.68
2018-11-06T16:09:46.700Z,15.85
2018-11-06T16:12:15.201Z,15.83
2018-11-06T16:14:43.809Z,15.68
2018-11-06T16:17:11.973Z,15.65
2018-11-06T16:19:40.360Z,15.61
2018-11-06T16:22:08.574Z,15.42
2018-11-06T16:24:38.626Z,15.42
2018-11-06T16:27:06.990Z,15.25
2018-11-06T16:29:35.180Z,15.22
2018-11-06T16:32:03.314Z,15.14
2018-11-06T16:34:31.450Z,15.08
2018-11-06T16:36:59.727Z,14.99
2018-11-06T16:39:29.595Z,14.92
2018-11-06T16:41:57.914Z,14.91
2018-11-06T16:44:26.358Z,14.92
2018-11-06T16:46:54.950Z,14.84
2018-11-06T16:49:23.164Z,14.65
2018-11-06T16:51:51.347Z,14.85
2018-11-06T16:54:19.846Z,14.81
2018-11-06T16:56:48.067Z,14.68
2018-11-06T16:59:16.178Z,14.53
2018-11-06T17:01:44.404Z,14.49
2018-11-06T17:04:13.176Z,14.60
2018-11-06T17:06:46.852Z,14.42
2018-11-06T17:09:16.568Z,14.41
2018-11-06T17:11:45.410Z,14.37
2018-11-06T17:14:13.837Z,14.26
2018-11-06T17:16:42.728Z,14.37
2018-11-06T17:19:12.294Z,14.33
2018-11-06T17:21:40.514Z,14.17
2018-11-06T17:24:08.656Z,14.07
2018-11-06T17:26:36.773Z,14.02
2018-11-06T17:29:05.726Z,13.96
2018-11-06T17:31:34.145Z,13.93
2018-11-06T17:34:02.659Z,13.93
2018-11-06T17:36:31.095Z,14.04
2018-11-06T17:38:59.506Z,13.87
2018-11-06T17:41:27.584Z,13.79
2018-11-06T17:43:56.452Z,13.77
2018-11-06T17:46:24.615Z,13.67
2018-11-06T17:48:53.472Z,13.73
2018-11-06T17:51:21.833Z,13.59
2018-11-06T17:53:50.037Z,13.53
2018-11-06T17:56:18.276Z,13.63
2018-11-06T17:58:46.452Z,13.65
2018-11-06T18:01:14.683Z,13.57
2018-11-06T18:03:43.193Z,13.50
2018-11-06T18:06:11.286Z,13.35
2018-11-06T18:08:39.815Z,13.41
2018-11-06T18:11:08.638Z,13.48
2018-11-06T18:13:37.764Z,13.35
2018-11-06T18:16:06.306Z,13.26
2018-11-06T18:18:35.156Z,13.28
2018-11-06T18:21:03.377Z,13.17
2018-11-06T18:23:31.645Z,13.15
2018-11-06T18:25:59.850Z,13.04
2018-11-06T18:28:28.062Z,13.07
2018-11-06T18:30:56.307Z,12.98
2018-11-06T18:33:25.511Z,13.01
2018-11-06T18:35:53.840Z,12.82
2018-11-06T18:38:22.841Z,12.84
2018-11-06T18:40:50.975Z,12.82
2018-11-06T18:43:19.116Z,12.75
2018-11-06T18:45:47.390Z,12.74
2018-11-06T18:48:15.783Z,12.69
2018-11-06T18:51:11.619Z,12.67
2018-11-06T18:53:40.566Z,12.57
2018-11-06T18:56:08.643Z,12.53
2018-11-06T18:58:37.834Z,12.59
2018-11-06T19:01:06.024Z,12.52
2018-11-06T19:03:35.248Z,12.38
2018-11-06T19:06:03.473Z,12.42
2018-11-06T19:08:32.516Z,12.43
2018-11-06T19:11:01.363Z,12.44
2018-11-06T19:13:29.700Z,12.37
2018-11-06T19:15:58.343Z,12.25
2018-11-06T19:18:26.522Z,12.22
2018-11-06T19:20:54.621Z,12.19
2018-11-06T19:23:23.725Z,12.17
2018-11-06T19:25:51.814Z,12.17
2018-11-06T19:28:19.904Z,12.11
2018-11-06T19:30:48.055Z,12.06
2018-11-06T19:33:16.188Z,12.11
2018-11-06T19:35:44.390Z,12.10
2018-11-06T19:38:12.519Z,12.04
2018-11-06T19:40:40.774Z,12.01
2018-11-06T19:43:08.846Z,11.99
2018-11-06T19:45:36.984Z,12.01
2018-11-06T19:48:05.498Z,12.03
2018-11-06T19:50:33.634Z,12.02
2018-11-06T19:53:01.846Z,12.01
2018-11-06T19:55:30.053Z,11.95
2018-11-06T19:57:58.187Z,11.93
2018-11-06T20:00:26.349Z,11.88
2018-11-06T20:02:54.578Z,11.84
2018-11-06T20:05:22.793Z,11.74
2018-11-06T20:07:51.527Z,11.71
2018-11-06T20:10:22.257Z,11.77
2018-11-06T20:12:51.425Z,11.76
2018-11-06T20:15:19.718Z,11.74
2018-11-06T20:17:48.821Z,11.71
2018-11-06T20:20:20.439Z,11.52
2018-11-06T20:22:48.635Z,11.59
2018-11-06T20:25:16.782Z,11.52
2018-11-06T20:27:45.327Z,11.51
2018-11-06T20:30:16.341Z,11.49
2018-11-06T20:32:44.555Z,11.48
2018-11-06T20:35:13.193Z,11.42
2018-11-06T20:37:41.418Z,11.48
2018-11-06T20:40:13.191Z,11.44
2018-11-06T20:42:42.036Z,11.30
2018-11-06T20:45:12.102Z,11.35
2018-11-06T20:47:40.463Z,11.38
2018-11-06T20:50:11.699Z,11.43
2018-11-06T20:52:39.997Z,11.32
2018-11-06T20:55:08.848Z,11.30
2018-11-06T20:57:36.950Z,11.33
2018-11-06T21:00:08.241Z,11.33
2018-11-06T21:02:36.336Z,11.36
2018-11-06T21:05:04.947Z,11.34
2018-11-06T21:07:33.320Z,11.27
2018-11-06T21:10:01.466Z,11.20
2018-11-06T21:12:29.736Z,11.25
2018-11-06T21:14:57.884Z,11.26
2018-11-06T21:17:26.981Z,11.11
2018-11-06T21:19:55.211Z,11.09
2018-11-06T21:22:23.287Z,11.04
2018-11-06T21:24:51.543Z,11.05
2018-11-06T21:27:19.757Z,11.09
2018-11-06T21:29:47.945Z,11.07
2018-11-06T21:32:16.188Z,11.15
2018-11-06T21:34:44.371Z,11.23
2018-11-06T21:37:12.618Z,11.14
2018-11-06T21:39:40.759Z,11.12
2018-11-06T21:42:09.175Z,11.08
2018-11-06T21:44:37.645Z,11.08
2018-11-06T21:47:05.783Z,11.06
2018-11-06T21:49:33.959Z,10.85
2018-11-06T21:52:02.234Z,10.85
2018-11-06T21:54:30.455Z,10.83
2018-11-06T21:56:59.649Z,10.73
2018-11-06T21:59:28.090Z,10.89
2018-11-06T22:01:57.007Z,10.91
2018-11-06T22:04:25.417Z,10.90
2018-11-06T22:06:53.581Z,10.85
2018-11-06T22:09:21.943Z,10.81
2018-11-06T22:11:50.061Z,10.80
2018-11-06T22:14:18.344Z,10.71
2018-11-06T22:16:46.739Z,10.49
2018-11-06T22:19:15.260Z,10.60
2018-11-06T22:21:43.751Z,10.50
2018-11-06T22:24:11.972Z,10.53
2018-11-06T22:26:40.160Z,10.56
2018-11-06T22:29:08.612Z,10.61
2018-11-06T22:31:37.278Z,10.56
2018-11-06T22:34:05.748Z,10.58
2018-11-06T22:36:34.046Z,10.62
2018-11-06T22:39:02.370Z,10.64
2018-11-06T22:41:30.803Z,10.55
2018-11-06T22:43:59.076Z,10.50
2018-11-06T22:46:27.386Z,10.40
2018-11-06T22:48:55.571Z,10.37
2018-11-06T22:51:24.058Z,10.47
2018-11-06T22:53:52.480Z,10.49
2018-11-06T22:56:20.871Z,10.50
2018-11-06T22:58:49.006Z,10.50
2018-11-06T23:01:22.822Z,10.48
2018-11-06T23:03:52.765Z,10.36
2018-11-06T23:06:21.542Z,10.22
2018-11-06T23:08:49.692Z,10.01
2018-11-06T23:11:18.522Z,10.14
2018-11-06T23:13:46.908Z,10.22
2018-11-06T23:16:15.173Z,10.16
2018-11-06T23:18:43.306Z,10.11
2018-11-06T23:21:11.448Z,10.11
2018-11-06T23:23:39.598Z,10.14
2018-11-06T23:26:08.080Z,10.10
2018-11-06T23:28:36.326Z,10.10
2018-11-06T23:31:04.821Z,10.16
2018-11-06T23:33:32.990Z,10.09
2018-11-06T23:36:01.398Z,10.07
2018-11-06T23:38:29.763Z,10.15
2018-11-06T23:40:58.449Z,10.15
2018-11-06T23:43:26.752Z,10.23
2018-11-06T23:45:55.063Z,10.18
2018-11-06T23:48:23.487Z,10.18
2018-11-06T23:50:51.923Z,10.09
2018-11-06T23:53:20.419Z,10.06
2018-11-06T23:55:48.553Z,10.19
2018-11-06T23:58:16.851Z,10.22
